Novomichurinsk, Russia
Current Conditions -  °F | °C
As of 7:00 PM on Thursday 23 Oct 2014 (Local Time) from UUDD Reporting Station
Few Clouds Few Clouds  
Wind Chill:   Ceiling: Unl
Heat Index: 19°   Visibility: 6mi
Dew Point: 10°   Wind: 13mph
Humidity: 68%   Direction: 340°NNW
Pressure: 30.36"   Gusts: NA
Location:  54.04°N, 39.78°E
Report Text: UUDD 231600Z 34006MPS 9999 FEW033 M07/M12 Q1028 3219009582190095 NOSIG
Loading
Personal Weather Stations






























Interactive Weather Map
Tropical Storm Tracking
New forecast layout! Learn more

10-Day Weather Forecast

Advertisements
Track Severe Weather on mobile